createdAt,value
2018-09-03T00:01:03.071Z,60.43
2018-09-03T00:03:31.627Z,59.23
2018-09-03T00:06:00.215Z,57.50
2018-09-03T00:08:28.811Z,61.03
2018-09-03T00:10:57.829Z,57.57
2018-09-03T00:13:26.451Z,60.43
2018-09-03T00:15:55.243Z,59.03
2018-09-03T00:18:23.864Z,76.20
2018-09-03T00:20:52.440Z,56.20
2018-09-03T00:23:21.461Z,58.67
2018-09-03T00:25:50.043Z,63.40
2018-09-03T00:28:18.647Z,58.73
2018-09-03T00:30:47.444Z,59.87
2018-09-03T00:33:21.044Z,63.13
2018-09-03T00:35:54.856Z,61.20
2018-09-03T00:38:28.519Z,63.67
2018-09-03T00:41:02.263Z,59.17
2018-09-03T00:43:36.027Z,62.40
2018-09-03T00:46:09.759Z,57.60
2018-09-03T00:48:38.387Z,65.00
2018-09-03T00:51:06.979Z,57.50
2018-09-03T00:53:35.636Z,57.17
2018-09-03T00:56:04.227Z,69.77
2018-09-03T00:58:32.790Z,60.90
2018-09-03T01:01:01.653Z,67.57
2018-09-03T01:03:30.217Z,56.77
2018-09-03T01:05:58.787Z,71.93
2018-09-03T01:08:27.476Z,64.83
2018-09-03T01:10:56.028Z,57.93
2018-09-03T01:13:24.616Z,72.37
2018-09-03T01:15:53.566Z,62.53
2018-09-03T01:18:22.161Z,66.53
2018-09-03T01:20:50.737Z,68.47
2018-09-03T01:23:19.428Z,55.20
2018-09-03T01:25:48.069Z,63.43
2018-09-03T01:28:16.644Z,67.33
2018-09-03T01:30:45.308Z,58.43
2018-09-03T01:33:13.882Z,60.30
2018-09-03T01:35:42.488Z,64.63
2018-09-03T01:38:11.207Z,58.30
2018-09-03T01:40:39.774Z,71.37
2018-09-03T01:43:08.368Z,58.20
2018-09-03T01:45:37.283Z,67.30
2018-09-03T01:48:05.923Z,62.87
2018-09-03T01:50:34.473Z,61.63
2018-09-03T01:53:03.048Z,69.47
2018-09-03T01:55:31.603Z,64.53
2018-09-03T01:58:00.167Z,65.93
2018-09-03T02:00:28.777Z,72.83
2018-09-03T02:02:57.356Z,65.20
2018-09-03T02:05:25.921Z,57.13
2018-09-03T02:07:54.659Z,72.50
2018-09-03T02:10:23.208Z,62.63
2018-09-03T02:12:51.764Z,65.67
2018-09-03T02:15:20.661Z,64.43
2018-09-03T02:17:49.220Z,63.13
2018-09-03T02:20:17.780Z,60.73
2018-09-03T02:22:46.664Z,60.13
2018-09-03T02:25:15.227Z,58.73
2018-09-03T02:27:43.807Z,62.17
2018-09-03T02:30:12.397Z,61.33
2018-09-03T02:32:41.584Z,63.43
2018-09-03T02:35:10.158Z,56.23
2018-09-03T02:37:38.828Z,59.87
2018-09-03T02:40:07.681Z,59.70
2018-09-03T02:42:36.310Z,56.30
2018-09-03T02:45:05.340Z,65.60
2018-09-03T02:47:33.926Z,61.63
2018-09-03T02:50:02.500Z,59.10
2018-09-03T02:52:31.187Z,57.90
2018-09-03T02:54:59.735Z,53.10
2018-09-03T02:57:28.336Z,63.97
2018-09-03T02:59:57.136Z,59.07
2018-09-03T03:02:26.072Z,64.13
2018-09-03T03:04:54.655Z,60.00
2018-09-03T03:07:23.555Z,59.13
2018-09-03T03:09:52.131Z,62.33
2018-09-03T03:12:22.607Z,61.33
2018-09-03T03:14:52.351Z,60.50
2018-09-03T03:17:21.461Z,66.67
2018-09-03T03:19:50.220Z,63.33
2018-09-03T03:22:18.951Z,59.23
2018-09-03T03:24:47.639Z,58.73
2018-09-03T03:27:16.730Z,62.70
2018-09-03T03:29:46.000Z,50.63
2018-09-03T03:32:14.759Z,56.87
2018-09-03T03:34:43.335Z,58.20
2018-09-03T03:37:11.907Z,57.40
2018-09-03T03:39:40.521Z,58.13
2018-09-03T03:42:09.080Z,55.13
2018-09-03T03:44:37.679Z,60.83
2018-09-03T03:47:06.316Z,54.37
2018-09-03T03:49:34.899Z,57.77
2018-09-03T03:52:03.579Z,55.07
2018-09-03T03:54:32.293Z,55.97
2018-09-03T03:57:00.871Z,62.40
2018-09-03T03:59:29.450Z,61.50
2018-09-03T04:01:58.194Z,65.43
2018-09-03T04:04:26.771Z,61.33
2018-09-03T04:06:55.350Z,55.37
2018-09-03T04:09:24.076Z,65.03
2018-09-03T04:11:52.663Z,57.67
2018-09-03T04:14:21.208Z,60.97
2018-09-03T04:16:49.903Z,60.93
2018-09-03T04:19:18.483Z,61.93
2018-09-03T04:21:47.056Z,59.60
2018-09-03T04:24:15.995Z,57.17
2018-09-03T04:26:44.560Z,58.17
2018-09-03T04:29:13.129Z,59.37
2018-09-03T04:31:42.028Z,63.47
2018-09-03T04:34:10.675Z,60.33
2018-09-03T04:36:39.227Z,60.40
2018-09-03T04:39:09.824Z,64.07
2018-09-03T04:41:38.711Z,60.80
2018-09-03T04:44:07.339Z,76.63
2018-09-03T04:46:35.933Z,61.50
2018-09-03T04:49:04.515Z,61.33
2018-09-03T04:51:33.135Z,66.73
2018-09-03T04:54:02.077Z,64.83
2018-09-03T04:56:30.633Z,57.30
2018-09-03T04:58:59.187Z,60.10
2018-09-03T05:01:27.852Z,63.87
2018-09-03T05:03:56.415Z,76.90
2018-09-03T05:06:24.967Z,60.53
2018-09-03T05:08:53.593Z,58.30
2018-09-03T05:11:22.147Z,64.20
2018-09-03T05:13:50.788Z,61.50
2018-09-03T05:16:19.492Z,56.90
2018-09-03T05:18:48.051Z,59.53
2018-09-03T05:21:16.642Z,52.93
2018-09-03T05:23:45.269Z,63.30
2018-09-03T05:26:13.895Z,61.60
2018-09-03T05:28:42.431Z,57.37
2018-09-03T05:31:11.183Z,55.73
2018-09-03T05:33:39.771Z,57.57
2018-09-03T05:36:08.492Z,54.93
2018-09-03T05:38:37.144Z,52.77
2018-09-03T05:41:05.797Z,54.03
2018-09-03T05:43:34.597Z,53.67
2018-09-03T05:46:03.512Z,53.60
2018-09-03T05:48:32.076Z,59.20
2018-09-03T05:51:00.679Z,44.20
2018-09-03T05:53:29.375Z,40.47
2018-09-03T05:55:58.011Z,44.47
2018-09-03T05:58:26.603Z,49.93
2018-09-03T06:00:55.261Z,47.40
2018-09-03T06:03:23.973Z,48.30
2018-09-03T06:05:52.555Z,48.30
2018-09-03T06:08:21.206Z,48.20
2018-09-03T06:10:49.764Z,41.43
2018-09-03T06:13:18.337Z,45.20
2018-09-03T06:15:47.400Z,39.13
2018-09-03T06:18:15.956Z,36.07
2018-09-03T06:20:45.056Z,43.33
2018-09-03T06:23:13.748Z,41.97
2018-09-03T06:25:42.321Z,44.90
2018-09-03T06:28:10.875Z,46.33
2018-09-03T06:30:39.465Z,39.70
2018-09-03T06:33:08.035Z,46.53
2018-09-03T06:35:36.587Z,51.87
2018-09-03T06:38:05.287Z,42.17
2018-09-03T06:40:33.869Z,45.10
2018-09-03T06:43:02.420Z,44.40
2018-09-03T06:45:31.328Z,51.77
2018-09-03T06:47:59.891Z,45.60
2018-09-03T06:50:28.440Z,51.23
2018-09-03T06:52:57.393Z,45.73
2018-09-03T06:55:25.967Z,50.77
2018-09-03T06:57:54.536Z,51.37
2018-09-03T07:00:24.088Z,54.97
2018-09-03T07:02:55.590Z,56.27
2018-09-03T07:05:25.604Z,52.30
2018-09-03T07:07:54.155Z,54.23
2018-09-03T07:10:25.258Z,56.80
2018-09-03T07:12:54.026Z,57.87
2018-09-03T07:15:22.887Z,59.37
2018-09-03T07:17:54.483Z,63.40
2018-09-03T07:20:25.558Z,59.40
2018-09-03T07:22:54.203Z,65.30
2018-09-03T07:25:22.796Z,53.63
2018-09-03T07:27:51.335Z,57.50
2018-09-03T07:30:19.908Z,55.87
2018-09-03T07:32:48.464Z,62.10
2018-09-03T07:35:17.074Z,64.33
2018-09-03T07:37:45.741Z,54.90
2018-09-03T07:40:14.319Z,57.17
2018-09-03T07:42:42.887Z,54.53
2018-09-03T07:45:11.476Z,57.07
2018-09-03T07:47:40.091Z,49.03
2018-09-03T07:50:08.647Z,52.77
2018-09-03T07:52:37.351Z,58.07
2018-09-03T07:55:05.912Z,49.33
2018-09-03T07:57:34.463Z,55.10
2018-09-03T08:00:03.134Z,57.43
2018-09-03T08:02:31.695Z,57.67
2018-09-03T08:05:00.251Z,53.17
2018-09-03T08:07:28.934Z,52.43
2018-09-03T08:09:57.471Z,47.40
2018-09-03T08:12:26.028Z,48.07
2018-09-03T08:14:54.696Z,45.47
2018-09-03T08:17:23.332Z,49.30
2018-09-03T08:19:51.905Z,48.87
2018-09-03T08:22:20.583Z,48.50
2018-09-03T08:24:49.140Z,40.30
2018-09-03T08:27:17.708Z,40.87
2018-09-03T08:29:46.771Z,37.33
2018-09-03T08:32:15.332Z,42.37
2018-09-03T08:34:43.891Z,34.20
2018-09-03T08:37:12.875Z,41.93
2018-09-03T08:39:41.427Z,37.50
2018-09-03T08:42:10.170Z,41.07
2018-09-03T08:44:38.787Z,41.23
2018-09-03T08:47:07.404Z,41.57
2018-09-03T08:49:35.944Z,37.10
2018-09-03T08:52:04.544Z,49.37
2018-09-03T08:54:33.121Z,36.93
2018-09-03T08:57:01.695Z,41.80
2018-09-03T08:59:30.539Z,39.00
2018-09-03T09:01:59.100Z,34.73
2018-09-03T09:04:27.652Z,35.97
2018-09-03T09:06:56.284Z,39.83
2018-09-03T09:09:24.832Z,39.40
2018-09-03T09:11:53.384Z,37.43
2018-09-03T09:14:21.951Z,43.33
2018-09-03T09:16:50.495Z,45.50
2018-09-03T09:19:19.080Z,53.37
2018-09-03T09:21:47.760Z,36.73
2018-09-03T09:24:16.301Z,40.33
2018-09-03T09:26:44.844Z,36.33
2018-09-03T09:29:13.531Z,37.23
2018-09-03T09:31:42.076Z,35.37
2018-09-03T09:34:10.636Z,38.23
2018-09-03T09:36:39.444Z,39.43
2018-09-03T09:39:09.201Z,33.83
2018-09-03T09:41:37.762Z,38.00
2018-09-03T09:44:06.963Z,37.47
2018-09-03T09:46:35.521Z,38.63
2018-09-03T09:49:04.071Z,37.03
2018-09-03T09:51:32.729Z,41.40
2018-09-03T09:54:01.295Z,35.00
2018-09-03T09:56:29.844Z,36.40
2018-09-03T09:58:58.508Z,38.27
2018-09-03T10:01:32.271Z,31.73
2018-09-03T10:04:00.918Z,34.97
2018-09-03T10:06:29.467Z,33.87
2018-09-03T10:08:58.393Z,35.53
2018-09-03T10:11:27.819Z,42.40
2018-09-03T10:13:56.375Z,39.90
2018-09-03T10:16:24.951Z,36.47
2018-09-03T10:18:53.627Z,30.20
2018-09-03T10:21:22.172Z,33.80
2018-09-03T10:23:50.724Z,26.93
2018-09-03T10:26:19.766Z,26.37
2018-09-03T10:28:48.336Z,26.00
2018-09-03T10:31:16.915Z,25.37
2018-09-03T10:33:45.559Z,31.17
2018-09-03T10:36:14.119Z,20.90
2018-09-03T10:38:42.759Z,24.13
2018-09-03T10:41:11.716Z,21.33
2018-09-03T10:43:40.375Z,20.67
2018-09-03T10:46:09.020Z,16.87
2018-09-03T10:48:38.076Z,11.30
2018-09-03T10:51:06.620Z,12.40
2018-09-03T10:53:35.184Z,16.23
2018-09-03T10:56:03.799Z,12.33
2018-09-03T10:58:32.359Z,26.30
2018-09-03T11:01:00.951Z,25.80
2018-09-03T11:03:29.628Z,23.10
2018-09-03T11:05:58.179Z,20.87
2018-09-03T11:08:26.768Z,21.70
2018-09-03T11:10:55.647Z,23.07
2018-09-03T11:13:24.199Z,25.50
2018-09-03T11:15:52.789Z,23.80
2018-09-03T11:18:21.707Z,24.00
2018-09-03T11:20:50.274Z,27.03
2018-09-03T11:23:18.824Z,23.47
2018-09-03T11:25:47.443Z,27.17
2018-09-03T11:28:16.063Z,24.37
2018-09-03T11:30:44.687Z,21.50
2018-09-03T11:33:13.279Z,29.97
2018-09-03T11:35:41.843Z,22.60
2018-09-03T11:38:10.399Z,24.90
2018-09-03T11:40:39.067Z,26.50
2018-09-03T11:43:07.771Z,23.40
2018-09-03T11:45:36.323Z,26.40
2018-09-03T11:48:04.916Z,26.50
2018-09-03T11:50:33.487Z,35.33
2018-09-03T11:53:02.044Z,35.00
2018-09-03T11:55:30.643Z,32.37
2018-09-03T11:57:59.271Z,35.80
2018-09-03T12:00:29.735Z,33.83
2018-09-03T12:02:58.915Z,32.87
2018-09-03T12:05:28.198Z,27.63
2018-09-03T12:07:56.923Z,24.83
2018-09-03T12:10:25.664Z,31.03
2018-09-03T12:12:54.208Z,26.97
2018-09-03T12:15:33.265Z,23.17
2018-09-03T12:18:01.827Z,25.90
2018-09-03T12:20:30.753Z,21.67
2018-09-03T12:22:59.435Z,24.93
2018-09-03T12:25:28.096Z,22.80
2018-09-03T12:27:56.984Z,24.73
2018-09-03T12:30:25.580Z,24.20
2018-09-03T12:32:54.151Z,31.33
2018-09-03T12:35:22.724Z,35.87
2018-09-03T12:37:51.388Z,29.33
2018-09-03T12:40:18.882Z,26.53
2018-09-03T12:42:47.515Z,22.87
2018-09-03T12:45:16.156Z,23.60
2018-09-03T12:47:44.730Z,34.37
2018-09-03T12:50:13.363Z,23.00
2018-09-03T12:52:42.143Z,25.17
2018-09-03T12:55:10.716Z,29.67
2018-09-03T12:57:39.261Z,21.67
2018-09-03T13:00:07.888Z,24.30
2018-09-03T13:02:39.415Z,17.27
2018-09-03T13:05:05.139Z,17.13
2018-09-03T13:07:33.811Z,16.03
2018-09-03T13:10:02.371Z,16.40
2018-09-03T13:12:31.090Z,26.30
2018-09-03T13:14:59.700Z,20.93
2018-09-03T13:17:29.215Z,20.10
2018-09-03T13:19:57.887Z,22.10
2018-09-03T13:22:26.788Z,18.73
2018-09-03T13:24:55.377Z,21.10
2018-09-03T13:27:23.936Z,23.03
2018-09-03T13:29:52.655Z,21.93
2018-09-03T13:32:21.227Z,24.57
2018-09-03T13:34:49.804Z,20.77
2018-09-03T13:37:18.528Z,27.60
2018-09-03T13:39:47.093Z,23.33
2018-09-03T13:42:15.987Z,25.33
2018-09-03T13:44:44.667Z,24.70
2018-09-03T13:47:13.227Z,24.37
2018-09-03T13:49:41.791Z,19.13
2018-09-03T13:52:10.607Z,15.90
2018-09-03T13:54:39.179Z,19.10
2018-09-03T13:57:07.752Z,13.97
2018-09-03T13:59:36.439Z,22.20
2018-09-03T14:02:05.372Z,29.57
2018-09-03T14:04:33.992Z,21.90
2018-09-03T14:07:02.571Z,20.00
2018-09-03T14:09:32.121Z,25.03
2018-09-03T14:12:00.716Z,19.07
2018-09-03T14:14:29.471Z,27.50
2018-09-03T14:16:58.779Z,24.20
2018-09-03T14:19:27.373Z,21.87
2018-09-03T14:21:55.972Z,24.20
2018-09-03T14:24:24.588Z,32.00
2018-09-03T14:26:53.295Z,25.23
2018-09-03T14:29:23.014Z,27.30
2018-09-03T14:31:51.627Z,18.33
2018-09-03T14:34:20.184Z,17.87
2018-09-03T14:36:49.021Z,23.30
2018-09-03T14:39:18.067Z,20.30
2018-09-03T14:41:47.675Z,21.83
2018-09-03T14:44:18.395Z,21.73
2018-09-03T14:46:48.653Z,19.60
2018-09-03T14:49:18.841Z,14.13
2018-09-03T14:51:48.935Z,16.13
2018-09-03T14:54:17.931Z,16.77
2018-09-03T14:56:47.830Z,20.00
2018-09-03T14:59:16.391Z,20.00
2018-09-03T15:01:45.287Z,29.83
2018-09-03T15:04:13.936Z,24.97
2018-09-03T15:06:42.535Z,19.83
2018-09-03T15:09:12.400Z,15.27
2018-09-03T15:11:41.267Z,20.43
2018-09-03T15:14:09.852Z,21.27
2018-09-03T15:16:38.440Z,21.27
2018-09-03T15:19:07.350Z,23.07
2018-09-03T15:21:36.520Z,20.37
2018-09-03T15:24:05.894Z,17.33
2018-09-03T15:26:35.041Z,13.23
2018-09-03T15:29:03.591Z,16.27
2018-09-03T15:31:32.179Z,13.90
2018-09-03T15:34:00.907Z,12.70
2018-09-03T15:36:29.564Z,17.40
2018-09-03T15:38:58.257Z,12.07
2018-09-03T15:41:26.822Z,13.93
2018-09-03T15:43:55.408Z,22.10
2018-09-03T15:46:24.008Z,12.03
2018-09-03T15:48:52.608Z,12.03
2018-09-03T15:51:21.164Z,9.60
2018-09-03T15:53:50.080Z,20.07
2018-09-03T15:56:18.681Z,10.57
2018-09-03T15:58:47.232Z,11.13
2018-09-03T16:01:15.912Z,12.17
2018-09-03T16:03:44.489Z,12.03
2018-09-03T16:06:13.051Z,15.67
2018-09-03T16:08:42.000Z,12.03
2018-09-03T16:11:10.559Z,8.77
2018-09-03T16:13:39.128Z,10.20
2018-09-03T16:16:07.787Z,8.67
2018-09-03T16:18:36.622Z,10.50
2018-09-03T16:21:05.656Z,13.63
2018-09-03T16:23:34.953Z,15.80
2018-09-03T16:26:03.841Z,10.30
2018-09-03T16:28:32.451Z,9.47
2018-09-03T16:31:01.544Z,8.07
2018-09-03T16:33:30.486Z,10.87
2018-09-03T16:35:59.393Z,10.27
2018-09-03T16:38:28.015Z,8.63
2018-09-03T16:40:56.878Z,12.40
2018-09-03T16:43:26.044Z,10.03
2018-09-03T16:45:54.847Z,8.20
2018-09-03T16:48:23.765Z,10.30
2018-09-03T16:50:52.876Z,8.83
2018-09-03T16:53:22.061Z,8.50
2018-09-03T16:55:51.140Z,7.40
2018-09-03T16:58:20.255Z,12.13
2018-09-03T17:00:48.923Z,12.03
2018-09-03T17:03:17.449Z,10.67
2018-09-03T17:05:46.476Z,14.27
2018-09-03T17:08:15.488Z,18.53
2018-09-03T17:10:44.303Z,13.60
2018-09-03T17:13:13.194Z,14.97
2018-09-03T17:15:42.167Z,13.97
2018-09-03T17:18:10.744Z,12.60
2018-09-03T17:20:39.686Z,14.43
2018-09-03T17:23:08.299Z,10.23
2018-09-03T17:25:37.195Z,18.93
2018-09-03T17:28:06.479Z,14.33
2018-09-03T17:30:35.222Z,16.77
2018-09-03T17:33:03.805Z,14.50
2018-09-03T17:35:32.540Z,11.30
2018-09-03T17:38:01.456Z,11.53
2018-09-03T17:40:31.559Z,10.40
2018-09-03T17:43:00.372Z,11.60
2018-09-03T17:45:28.987Z,11.77
2018-09-03T17:47:57.735Z,9.47
2018-09-03T17:50:26.312Z,8.37
2018-09-03T17:52:55.335Z,12.30
2018-09-03T17:55:23.919Z,15.23
2018-09-03T17:57:52.484Z,16.43
2018-09-03T18:00:21.160Z,10.93
2018-09-03T18:02:49.719Z,13.80
2018-09-03T18:05:18.292Z,10.40
2018-09-03T18:07:46.887Z,11.67
2018-09-03T18:10:15.453Z,13.10
2018-09-03T18:12:44.021Z,13.23
2018-09-03T18:15:12.696Z,13.40
2018-09-03T18:17:41.248Z,13.17
2018-09-03T18:20:09.924Z,12.77
2018-09-03T18:22:38.859Z,12.03
2018-09-03T18:25:07.487Z,13.13
2018-09-03T18:27:36.164Z,13.77
2018-09-03T18:30:04.876Z,10.87
2018-09-03T18:32:33.508Z,12.03
2018-09-03T18:35:02.080Z,11.90
2018-09-03T18:37:31.083Z,14.33
2018-09-03T18:39:59.665Z,11.50
2018-09-03T18:42:28.232Z,12.60
2018-09-03T18:44:56.919Z,12.07
2018-09-03T18:47:25.509Z,12.07
2018-09-03T18:49:54.096Z,19.10
2018-09-03T18:52:22.851Z,20.60
2018-09-03T18:54:51.407Z,15.57
2018-09-03T18:57:19.976Z,11.80
2018-09-03T18:59:48.728Z,12.23
2018-09-03T19:02:17.271Z,13.83
2018-09-03T19:04:45.839Z,12.33
2018-09-03T19:07:14.507Z,13.20
2018-09-03T19:09:43.133Z,12.67
2018-09-03T19:12:11.703Z,15.23
2018-09-03T19:14:40.291Z,16.43
2018-09-03T19:17:08.874Z,11.73
2018-09-03T19:19:37.504Z,12.20
2018-09-03T19:22:06.295Z,13.27
2018-09-03T19:24:34.864Z,12.93
2018-09-03T19:27:03.492Z,13.13
2018-09-03T19:29:32.159Z,12.40
2018-09-03T19:32:00.747Z,13.40
2018-09-03T19:34:29.302Z,11.07
2018-09-03T19:36:57.996Z,16.20
2018-09-03T19:39:26.551Z,15.00
2018-09-03T19:41:55.115Z,14.40
2018-09-03T19:44:23.819Z,17.20
2018-09-03T19:46:52.383Z,15.43
2018-09-03T19:49:21.107Z,17.80
2018-09-03T19:51:49.959Z,16.70
2018-09-03T19:54:18.645Z,14.67
2018-09-03T19:56:47.204Z,19.90
2018-09-03T19:59:15.807Z,13.83
2018-09-03T20:01:44.355Z,13.20
2018-09-03T20:04:13.005Z,14.80
2018-09-03T20:06:41.680Z,15.60
2018-09-03T20:09:11.099Z,12.30
2018-09-03T20:11:40.534Z,19.90
2018-09-03T20:14:09.976Z,16.53
2018-09-03T20:16:38.558Z,19.93
2018-09-03T20:19:07.115Z,16.20
2018-09-03T20:21:35.796Z,13.70
2018-09-03T20:24:04.435Z,15.70
2018-09-03T20:26:33.064Z,12.87
2018-09-03T20:29:01.744Z,10.17
2018-09-03T20:31:30.308Z,15.00
2018-09-03T20:33:58.967Z,14.10
2018-09-03T20:36:27.584Z,15.27
2018-09-03T20:38:56.331Z,17.40
2018-09-03T20:41:24.915Z,14.73
2018-09-03T20:43:53.619Z,15.87
2018-09-03T20:46:22.218Z,15.43
2018-09-03T20:48:50.828Z,16.60
2018-09-03T20:51:19.763Z,14.93
2018-09-03T20:53:48.859Z,13.77
2018-09-03T20:56:17.451Z,14.57
2018-09-03T20:58:46.084Z,18.00
2018-09-03T21:01:14.648Z,19.77
2018-09-03T21:03:43.208Z,14.10
2018-09-03T21:06:12.068Z,14.07
2018-09-03T21:08:40.617Z,15.77
2018-09-03T21:11:09.183Z,16.27
2018-09-03T21:13:37.968Z,14.80
2018-09-03T21:16:06.711Z,14.67
2018-09-03T21:18:35.304Z,12.40
2018-09-03T21:21:03.959Z,16.40
2018-09-03T21:23:32.775Z,14.77
2018-09-03T21:26:01.404Z,18.63
2018-09-03T21:28:30.208Z,22.60
2018-09-03T21:30:58.778Z,17.77
2018-09-03T21:33:27.511Z,17.57
2018-09-03T21:35:56.107Z,16.90
2018-09-03T21:38:24.883Z,13.10
2018-09-03T21:40:53.454Z,14.40
2018-09-03T21:43:22.472Z,16.97
2018-09-03T21:45:51.065Z,18.40
2018-09-03T21:48:19.853Z,22.17
2018-09-03T21:50:48.543Z,17.83
2018-09-03T21:53:17.095Z,19.37
2018-09-03T21:55:45.696Z,17.43
2018-09-03T21:58:14.379Z,18.13
2018-09-03T22:00:44.512Z,16.57
2018-09-03T22:03:13.080Z,21.47
2018-09-03T22:05:41.863Z,17.13
2018-09-03T22:08:10.424Z,19.70
2018-09-03T22:10:38.980Z,16.47
2018-09-03T22:13:07.774Z,17.57
2018-09-03T22:15:36.615Z,19.80
2018-09-03T22:18:05.179Z,16.87
2018-09-03T22:20:33.824Z,25.43
2018-09-03T22:23:02.375Z,16.20
2018-09-03T22:25:30.967Z,15.77
2018-09-03T22:27:59.651Z,16.60
2018-09-03T22:30:29.829Z,23.27
2018-09-03T22:32:58.427Z,22.30
2018-09-03T22:35:27.203Z,17.57
2018-09-03T22:37:55.791Z,14.10
2018-09-03T22:40:24.378Z,18.17
2018-09-03T22:42:52.971Z,20.90
2018-09-03T22:45:21.566Z,15.33
2018-09-03T22:47:50.132Z,14.10
2018-09-03T22:50:18.821Z,17.30
2018-09-03T22:52:47.387Z,33.77
2018-09-03T22:55:15.975Z,20.27
2018-09-03T22:57:44.592Z,18.50
2018-09-03T23:00:13.188Z,20.30
2018-09-03T23:02:43.719Z,23.70
2018-09-03T23:05:12.966Z,28.93
2018-09-03T23:07:41.545Z,22.20
2018-09-03T23:10:10.583Z,22.80
2018-09-03T23:12:39.147Z,27.80
2018-09-03T23:15:08.632Z,18.50
2018-09-03T23:17:37.371Z,17.03
2018-09-03T23:20:05.955Z,21.83
2018-09-03T23:22:34.651Z,21.33
2018-09-03T23:25:03.255Z,18.53
2018-09-03T23:27:31.829Z,18.93
2018-09-03T23:30:00.395Z,20.60
2018-09-03T23:32:29.392Z,20.10
2018-09-03T23:34:57.951Z,18.97
2018-09-03T23:37:26.554Z,20.13
2018-09-03T23:39:55.476Z,18.30
2018-09-03T23:42:24.042Z,16.83
2018-09-03T23:44:52.643Z,19.97
2018-09-03T23:47:21.263Z,18.97
2018-09-03T23:49:49.823Z,16.63
2018-09-03T23:52:18.376Z,18.10
2018-09-03T23:54:47.003Z,16.77
2018-09-03T23:57:15.571Z,17.53
2018-09-03T23:59:44.157Z,17.87
